Time;durP1;ratioP1;P1;durP2;ratioP2;P2;SDS_P1;SDS_P2;PMS_P1;PMS_P2;Temp;Humidity;BMP_temperature;BMP_pressure;BME280_temperature;BME280_humidity;BME280_pressure;Samples;Min_cycle;Max_cycle;Signal;HPM_P1;HPM_P2
2022/12/08 00:01:31;;;;;;;2.92;0.88;;;3.70;99.90;;;;;;5051764;28;20047;-77
2022/12/08 00:03:58;;;;;;;8.02;1.92;;;;;;;;;;5065470;28;20036;-77
2022/12/08 00:09:21;;;;;;;5.75;1.42;;;;;;;;;;5091081;28;20040;-78
2022/12/08 00:11:49;;;;;;;7.00;1.33;;;3.30;99.90;;;;;;5066129;28;20473;-79
2022/12/08 00:14:15;;;;;;;6.30;1.30;;;3.30;99.90;;;;;;5063991;28;20060;-81
2022/12/08 00:16:41;;;;;;;4.68;1.00;;;3.70;99.90;;;;;;5060732;28;20523;-82
2022/12/08 00:19:07;;;;;;;5.20;0.88;;;;;;;;;;5058257;28;20063;-83
2022/12/08 00:21:32;;;;;;;7.25;1.40;;;3.30;99.90;;;;;;5094153;28;20044;-82
2022/12/08 00:23:58;;;;;;;4.55;1.10;;;3.40;99.90;;;;;;5056407;28;20044;-83
2022/12/08 00:26:24;;;;;;;5.63;1.02;;;3.20;99.90;;;;;;5083935;28;20036;-85
2022/12/08 00:28:49;;;;;;;4.20;1.00;;;3.20;99.90;;;;;;5059907;28;20467;-85
2022/12/08 00:31:15;;;;;;;6.22;1.00;;;3.30;99.90;;;;;;5059135;28;20040;-84
2022/12/08 00:33:41;;;;;;;9.77;1.30;;;3.20;99.90;;;;;;5074997;28;20040;-85
2022/12/08 00:36:08;;;;;;;5.07;1.25;;;3.20;99.90;;;;;;5082566;28;20033;-84
2022/12/08 00:38:35;;;;;;;5.53;1.00;;;3.80;99.90;;;;;;5084153;28;20040;-83
2022/12/08 00:41:02;;;;;;;4.78;1.17;;;3.20;99.90;;;;;;5071873;28;20484;-84
2022/12/08 00:43:28;;;;;;;4.75;1.00;;;3.40;99.90;;;;;;5061948;28;20098;-84
2022/12/08 00:45:54;;;;;;;5.07;1.20;;;3.20;99.90;;;;;;5093957;28;20036;-83
2022/12/08 00:48:19;;;;;;;6.18;1.10;;;3.30;99.90;;;;;;5080260;28;20118;-83
2022/12/08 00:50:45;;;;;;;4.60;1.38;;;;;;;;;;5094926;28;20065;-83
2022/12/08 00:53:11;;;;;;;8.30;1.42;;;3.30;99.90;;;;;;5082252;28;20454;-83
2022/12/08 00:55:36;;;;;;;4.10;1.00;;;3.30;99.90;;;;;;5094897;28;20047;-84
2022/12/08 00:58:02;;;;;;;6.68;1.30;;;3.40;99.90;;;;;;5066502;28;20032;-84
2022/12/08 01:00:28;;;;;;;8.30;1.10;;;3.90;99.90;;;;;;5073926;28;20053;-86
2022/12/08 01:02:53;;;;;;;5.97;1.13;;;3.40;99.90;;;;;;5067664;28;20036;-85
2022/12/08 01:05:19;;;;;;;5.30;0.80;;;3.30;99.90;;;;;;5080965;28;20277;-80
2022/12/08 01:07:47;;;;;;;9.60;1.23;;;3.80;99.90;;;;;;5065239;28;20157;-79
2022/12/08 01:10:13;;;;;;;4.40;1.00;;;3.20;99.90;;;;;;5068860;28;20119;-78
2022/12/08 01:12:39;;;;;;;12.52;1.75;;;3.70;99.90;;;;;;5074434;28;20074;-78
2022/12/08 01:15:05;;;;;;;3.58;0.90;;;3.10;99.90;;;;;;5066998;28;20042;-80
2022/12/08 01:17:31;;;;;;;4.95;0.68;;;2.80;99.90;;;;;;5069520;28;20036;-81
2022/12/08 01:20:00;;;;;;;4.93;1.00;;;3.10;99.90;;;;;;5076727;28;20036;-81
2022/12/08 01:22:27;;;;;;;5.40;0.93;;;;;;;;;;5091904;28;20050;-80
2022/12/08 01:24:52;;;;;;;5.95;0.93;;;3.00;99.90;;;;;;5053649;28;20036;-83
2022/12/08 01:27:18;;;;;;;3.35;1.10;;;3.00;99.90;;;;;;5093559;28;20046;-80
2022/12/08 01:29:44;;;;;;;5.18;2.00;;;3.00;99.90;;;;;;5077956;28;20177;-80
2022/12/08 01:32:10;;;;;;;4.63;1.08;;;;;;;;;;5094145;28;20040;-80
2022/12/08 01:34:36;;;;;;;4.57;1.00;;;;;;;;;;5091455;28;20040;-82
2022/12/08 01:37:01;;;;;;;2.20;0.88;;;3.00;99.90;;;;;;5070521;28;20036;-82
2022/12/08 01:39:28;;;;;;;6.32;1.15;;;;;;;;;;5063725;28;20040;-84
2022/12/08 01:41:54;;;;;;;3.53;1.00;;;2.80;99.90;;;;;;5056059;28;20032;-85
2022/12/08 01:44:20;;;;;;;4.15;1.00;;;3.30;99.90;;;;;;5082875;28;20061;-85
2022/12/08 01:46:47;;;;;;;4.60;0.90;;;;;;;;;;5060957;28;20044;-84
2022/12/08 01:49:19;;;;;;;2.28;0.80;;;;;;;;;;5103480;28;20127;-85
2022/12/08 01:51:54;;;;;;;4.90;0.80;;;;;;;;;;5107051;28;20043;-82
2022/12/08 01:54:21;;;;;;;3.78;1.13;;;;;;;;;;5100911;28;20119;-84
2022/12/08 01:57:06;;;;;;;4.72;0.93;;;;;;;;;;5085066;28;20068;-84
2022/12/08 01:59:34;;;;;;;4.53;1.20;;;;;;;;;;5101073;28;20039;-85
2022/12/08 02:01:59;;;;;;;3.67;0.77;;;3.20;99.90;;;;;;5093316;28;20036;-83
2022/12/08 02:04:25;;;;;;;6.70;1.20;;;3.10;99.90;;;;;;5076940;28;20044;-83
2022/12/08 02:06:52;;;;;;;15.60;2.10;;;;;;;;;;5072992;28;20040;-83
2022/12/08 02:09:18;;;;;;;4.47;1.98;;;;;;;;;;5090171;28;20502;-82
2022/12/08 02:11:44;;;;;;;5.78;1.23;;;;;;;;;;5073016;28;20051;-84
2022/12/08 02:14:12;;;;;;;4.32;1.05;;;3.20;99.90;;;;;;5101780;28;20569;-84
2022/12/08 02:16:57;;;;;;;3.83;0.80;;;;;;;;;;5081905;28;20125;-85
2022/12/08 02:19:29;;;;;;;2.75;0.70;;;;;;;;;;5070299;28;20398;-86
2022/12/08 02:22:00;;;;;;;2.30;0.70;;;;;;;;;;5079281;28;20036;-83
2022/12/08 02:24:40;;;;;;;5.30;0.88;;;;;;;;;;5075970;28;20045;-84
2022/12/08 02:27:11;;;;;;;4.40;0.80;;;3.10;99.90;;;;;;5074790;28;20037;-84
2022/12/08 02:30:02;;;;;;;2.70;0.82;;;3.30;99.90;;;;;;5070911;28;20040;-84
2022/12/08 02:32:28;;;;;;;1.35;0.50;;;;;;;;;;5078105;28;20048;-81
2022/12/08 02:34:57;;;;;;;3.83;0.93;;;;;;;;;;5052930;28;20093;-79
2022/12/08 02:37:39;;;;;;;4.43;0.70;;;2.70;99.90;;;;;;5070396;28;20461;-78
2022/12/08 02:40:22;;;;;;;2.25;0.70;;;2.80;99.90;;;;;;5066827;28;20035;-76
2022/12/08 02:42:55;;;;;;;3.72;0.77;;;;;;;;;;5054683;28;20119;-76
2022/12/08 02:45:33;;;;;;;7.93;1.02;;;;;;;;;;5072272;28;20093;-75
2022/12/08 02:47:59;;;;;;;4.18;0.90;;;;;;;;;;5061659;28;20040;-76
2022/12/08 02:50:26;;;;;;;4.55;1.02;;;;;;;;;;5068959;28;20040;-77
2022/12/08 02:52:51;;;;;;;3.90;0.85;;;2.20;99.90;;;;;;5064261;28;20068;-77
2022/12/08 02:55:35;;;;;;;3.45;0.88;;;;;;;;;;5087106;28;20050;-78
2022/12/08 02:58:34;;;;;;;4.55;1.00;;;2.70;99.90;;;;;;5083185;28;20388;-78
2022/12/08 03:01:00;;;;;;;3.97;1.00;;;;;;;;;;4983843;28;20051;-79
2022/12/08 03:03:59;;;;;;;3.85;0.70;;;;;;;;;;5066931;28;20037;-80
2022/12/08 03:06:43;;;;;;;4.32;1.05;;;2.40;99.90;;;;;;5030659;28;20070;-81
2022/12/08 03:09:29;;;;;;;2.13;0.77;;;;;;;;;;5070542;28;20064;-81
2022/12/08 03:11:55;;;;;;;5.63;0.90;;;;;;;;;;5079695;28;20041;-83
2022/12/08 03:14:21;;;;;;;2.13;0.80;;;2.40;99.90;;;;;;5090550;28;20652;-82
2022/12/08 03:16:49;;;;;;;3.67;0.88;;;;;;;;;;5065720;28;20041;-83
2022/12/08 03:19:18;;;;;;;3.97;1.10;;;1.60;99.90;;;;;;5072959;28;20047;-82
2022/12/08 03:21:46;;;;;;;4.68;0.88;;;;;;;;;;5078409;28;20047;-82
2022/12/08 03:24:12;;;;;;;2.22;0.75;;;;;;;;;;5077782;28;20032;-83
2022/12/08 03:26:46;;;;;;;4.40;0.80;;;;;;;;;;5087553;28;20066;-83
2022/12/08 03:29:12;;;;;;;3.90;1.00;;;;;;;;;;5058237;28;20049;-83
2022/12/08 03:31:41;;;;;;;4.32;0.90;;;;;;;;;;5077245;28;20046;-82
2022/12/08 03:34:08;;;;;;;3.53;1.02;;;;;;;;;;5091148;28;20043;-82
2022/12/08 03:36:33;;;;;;;3.13;0.90;;;2.60;99.90;;;;;;5055398;28;20047;-82
2022/12/08 03:38:59;;;;;;;3.03;0.90;;;2.30;99.90;;;;;;5059020;28;20048;-82
2022/12/08 03:41:25;;;;;;;4.55;0.90;;;2.10;99.90;;;;;;5103429;28;20059;-82
2022/12/08 03:43:57;;;;;;;4.28;0.98;;;;;;;;;;5070511;28;20028;-80
2022/12/08 03:46:25;;;;;;;4.90;1.05;;;2.50;99.90;;;;;;5073885;28;20040;-80
2022/12/08 03:48:51;;;;;;;4.57;1.00;;;2.30;99.90;;;;;;5075635;28;20067;-81
2022/12/08 03:51:18;;;;;;;2.35;0.75;;;;;;;;;;5097984;28;20615;-80
2022/12/08 03:53:44;;;;;;;10.43;1.85;;;2.20;99.90;;;;;;5079201;28;20040;-80
2022/12/08 03:56:34;;;;;;;6.18;1.10;;;2.60;99.90;;;;;;5066070;28;20071;-80
2022/12/08 03:59:00;;;;;;;3.22;0.98;;;;;;;;;;5102085;28;20164;-80
2022/12/08 04:01:26;;;;;;;5.05;0.90;;;;;;;;;;5082916;28;20043;-80
2022/12/08 04:03:53;;;;;;;4.50;1.33;;;;;;;;;;5083917;28;20065;-80
2022/12/08 04:06:19;;;;;;;11.02;3.08;;;;;;;;;;5083654;28;20039;-79
2022/12/08 04:08:46;;;;;;;5.82;1.35;;;2.40;99.90;;;;;;5067328;28;20034;-78
2022/12/08 04:11:11;;;;;;;3.33;1.05;;;1.90;99.90;;;;;;5088594;28;20036;-79
2022/12/08 04:13:38;;;;;;;4.82;1.10;;;1.70;99.90;;;;;;5077590;28;20050;-79
2022/12/08 04:16:05;;;;;;;4.20;1.05;;;2.10;99.90;;;;;;5071405;28;20459;-78
2022/12/08 04:18:31;;;;;;;7.57;1.35;;;;;;;;;;5047607;28;20394;-78
2022/12/08 04:20:57;;;;;;;6.13;1.60;;;1.70;99.90;;;;;;5059068;28;20161;-78
2022/12/08 04:23:22;;;;;;;4.68;1.10;;;2.00;99.90;;;;;;5067987;28;20060;-78
2022/12/08 04:25:50;;;;;;;4.63;1.20;;;2.00;99.90;;;;;;5053129;28;20104;-78
2022/12/08 04:28:16;;;;;;;4.20;1.02;;;;;;;;;;5048135;28;20028;-77
2022/12/08 04:30:42;;;;;;;6.45;1.30;;;;;;;;;;5065674;28;20405;-77
2022/12/08 04:33:08;;;;;;;7.28;1.27;;;1.90;99.90;;;;;;5067157;28;20447;-77
2022/12/08 04:35:34;;;;;;;4.38;1.20;;;1.70;99.90;;;;;;5075793;28;20123;-79
2022/12/08 04:37:59;;;;;;;5.80;1.80;;;1.90;99.90;;;;;;5062225;28;20505;-79
2022/12/08 04:40:25;;;;;;;5.20;1.90;;;1.70;99.90;;;;;;5077219;28;20054;-79
2022/12/08 04:42:51;;;;;;;4.78;1.25;;;1.80;99.90;;;;;;5079876;28;20046;-79
2022/12/08 04:45:17;;;;;;;4.80;1.05;;;;;;;;;;5082725;28;20029;-79
2022/12/08 04:47:43;;;;;;;6.20;1.30;;;1.40;99.90;;;;;;5068375;28;20071;-79
2022/12/08 04:50:09;;;;;;;9.02;1.55;;;1.90;99.90;;;;;;5092421;28;20032;-77
2022/12/08 04:52:35;;;;;;;5.70;1.20;;;1.90;99.90;;;;;;5066884;28;20047;-79
2022/12/08 04:55:00;;;;;;;7.05;1.70;;;1.90;99.90;;;;;;5073665;28;20032;-77
2022/12/08 04:57:26;;;;;;;6.10;1.10;;;1.90;99.90;;;;;;5084482;28;20442;-78
2022/12/08 04:59:52;;;;;;;7.22;1.35;;;1.70;99.90;;;;;;5079477;28;20177;-79
2022/12/08 05:02:18;;;;;;;13.63;1.77;;;1.60;99.90;;;;;;5070763;28;20032;-79
2022/12/08 05:04:43;;;;;;;4.47;1.30;;;1.70;99.90;;;;;;5051223;28;20110;-79
2022/12/08 05:07:09;;;;;;;4.97;1.00;;;1.70;99.90;;;;;;5089649;28;20393;-80
2022/12/08 05:09:35;;;;;;;4.63;1.20;;;1.70;99.90;;;;;;5046302;28;20524;-79
2022/12/08 05:12:00;;;;;;;3.58;0.98;;;1.50;99.90;;;;;;5074427;28;20039;-79
2022/12/08 05:14:26;;;;;;;3.63;1.00;;;;;;;;;;5070220;28;20043;-79
2022/12/08 05:16:52;;;;;;;5.07;1.70;;;;;;;;;;5090362;28;20531;-79
2022/12/08 05:19:18;;;;;;;5.20;1.33;;;1.50;99.90;;;;;;5078262;28;20501;-79
2022/12/08 05:21:45;;;;;;;4.95;1.50;;;;;;;;;;5094339;28;20043;-79
2022/12/08 05:24:10;;;;;;;2.20;0.93;;;1.30;99.90;;;;;;5055326;28;20080;-79
2022/12/08 05:26:36;;;;;;;5.03;1.27;;;1.40;99.90;;;;;;5068804;28;20036;-78
2022/12/08 05:29:02;;;;;;;6.28;1.50;;;;;;;;;;5074811;28;20058;-79
2022/12/08 05:31:28;;;;;;;5.88;1.75;;;;;;;;;;5074817;28;20046;-77
2022/12/08 05:33:54;;;;;;;4.63;1.40;;;1.70;99.90;;;;;;5065559;28;20519;-78
2022/12/08 05:36:20;;;;;;;5.53;1.25;;;1.70;99.90;;;;;;5075165;28;20036;-77
2022/12/08 05:38:46;;;;;;;4.90;1.25;;;2.00;99.90;;;;;;5063127;28;20051;-80
2022/12/08 05:41:18;;;;;;;4.25;1.15;;;;;;;;;;5073110;28;20028;-76
2022/12/08 05:43:44;;;;;;;6.15;1.17;;;2.00;99.90;;;;;;5071216;28;20040;-77
2022/12/08 05:46:10;;;;;;;9.15;1.70;;;2.20;99.90;;;;;;5068539;28;20118;-77
2022/12/08 05:48:36;;;;;;;6.78;1.20;;;2.20;99.90;;;;;;5072035;28;20047;-77
2022/12/08 05:51:03;;;;;;;6.03;1.13;;;2.10;99.90;;;;;;5070557;28;20040;-78
2022/12/08 05:53:28;;;;;;;5.05;1.08;;;2.20;99.90;;;;;;5066094;28;20090;-80
2022/12/08 05:55:54;;;;;;;5.80;1.10;;;2.00;99.90;;;;;;5058586;28;20031;-79
2022/12/08 05:58:21;;;;;;;6.63;1.10;;;;;;;;;;5052233;28;20038;-80
2022/12/08 06:00:47;;;;;;;3.25;0.90;;;;;;;;;;5094555;28;20207;-80
2022/12/08 06:03:15;;;;;;;5.53;1.08;;;1.80;99.90;;;;;;5088036;28;20032;-80
2022/12/08 06:05:42;;;;;;;8.55;1.27;;;2.40;99.90;;;;;;5066590;28;20047;-80
2022/12/08 06:08:08;;;;;;;9.55;1.63;;;2.00;99.90;;;;;;5083200;28;20040;-80
2022/12/08 06:10:34;;;;;;;7.53;1.48;;;1.90;99.90;;;;;;5067200;28;20089;-80
2022/12/08 06:13:00;;;;;;;8.38;1.40;;;;;;;;;;5078677;28;20073;-79
2022/12/08 06:15:26;;;;;;;5.07;1.08;;;;;;;;;;5078177;28;20036;-79
2022/12/08 06:17:52;;;;;;;4.95;1.10;;;1.80;99.90;;;;;;5090450;28;20039;-78
2022/12/08 06:20:17;;;;;;;7.10;1.60;;;1.50;99.90;;;;;;5057454;28;20547;-77
2022/12/08 06:22:43;;;;;;;5.65;1.25;;;1.70;99.90;;;;;;5090492;28;20020;-77
2022/12/08 06:25:09;;;;;;;5.32;1.30;;;;;;;;;;5086799;22;20044;-51
2022/12/08 06:27:35;;;;;;;4.88;1.50;;;1.80;99.90;;;;;;5057562;28;20539;-53
2022/12/08 06:30:00;;;;;;;5.65;1.63;;;1.50;99.90;;;;;;5061746;28;20040;-53
2022/12/08 06:32:26;;;;;;;6.38;1.55;;;1.60;99.90;;;;;;5047081;28;20094;-52
2022/12/08 06:34:52;;;;;;;4.75;1.23;;;1.60;99.90;;;;;;5064412;28;20033;-52
2022/12/08 06:37:18;;;;;;;5.20;1.30;;;1.70;99.90;;;;;;5052679;28;20535;-55
2022/12/08 06:39:44;;;;;;;7.40;1.50;;;1.60;99.90;;;;;;5048935;28;20070;-52
2022/12/08 06:44:54;;;;;;;5.40;1.23;;;1.60;99.90;;;;;;5059220;28;20530;-55
2022/12/08 06:47:20;;;;;;;6.45;1.63;;;1.70;99.90;;;;;;5063657;28;20048;-54
2022/12/08 06:49:46;;;;;;;8.98;2.20;;;1.40;99.90;;;;;;5038509;28;20528;-55
2022/12/08 06:52:12;;;;;;;8.27;1.42;;;1.50;99.90;;;;;;5063662;28;20062;-55
2022/12/08 06:54:38;;;;;;;6.55;1.52;;;1.40;99.90;;;;;;5052924;28;20120;-56
2022/12/08 06:57:03;;;;;;;7.85;1.70;;;1.50;99.90;;;;;;5056503;28;20041;-56
2022/12/08 06:59:29;;;;;;;12.40;2.05;;;1.40;99.90;;;;;;5055255;28;20052;-52
2022/12/08 07:01:56;;;;;;;7.25;2.05;;;1.30;99.90;;;;;;5061527;28;20075;-56
2022/12/08 07:04:22;;;;;;;6.82;1.60;;;;;;;;;;5056226;28;20047;-53
2022/12/08 07:06:48;;;;;;;12.13;3.00;;;;;;;;;;5067142;28;20709;-55
2022/12/08 07:09:14;;;;;;;9.48;2.40;;;;;;;;;;5066099;28;20044;-56
2022/12/08 07:11:40;;;;;;;6.05;1.52;;;;;;;;;;5059049;28;20043;-54
2022/12/08 07:14:06;;;;;;;9.27;1.92;;;;;;;;;;5067982;28;20040;-54
2022/12/08 07:16:32;;;;;;;9.48;2.10;;;1.30;99.90;;;;;;5067424;28;20513;-55
2022/12/08 07:18:59;;;;;;;6.97;1.55;;;;;;;;;;5070494;28;20037;-55
2022/12/08 07:21:25;;;;;;;8.18;2.30;;;;;;;;;;5050193;28;20040;-55
2022/12/08 07:23:50;;;;;;;11.38;2.78;;;1.40;99.90;;;;;;5067207;28;20509;-53
2022/12/08 07:26:16;;;;;;;9.88;2.30;;;1.00;99.90;;;;;;5068839;28;20115;-56
2022/12/08 07:28:43;;;;;;;7.70;2.13;;;;;;;;;;5062398;28;20647;-56
2022/12/08 07:31:16;;;;;;;9.50;2.30;;;;;;;;;;5059900;28;20082;-53
2022/12/08 07:33:42;;;;;;;5.95;2.00;;;1.10;99.90;;;;;;5060097;28;20436;-55
2022/12/08 07:36:08;;;;;;;10.07;2.08;;;;;;;;;;5064547;28;20036;-56
2022/12/08 07:38:34;;;;;;;8.10;2.50;;;;;;;;;;5060531;28;20129;-56
2022/12/08 07:41:00;;;;;;;8.85;2.63;;;;;;;;;;5065005;28;20524;-53
2022/12/08 07:43:27;;;;;;;10.77;3.20;;;;;;;;;;5065112;28;20522;-55
2022/12/08 07:45:53;;;;;;;9.88;3.00;;;1.00;99.90;;;;;;5066265;28;20487;-53
2022/12/08 07:48:19;;;;;;;9.95;2.95;;;;;;;;;;5067891;28;20325;-55
2022/12/08 07:50:45;;;;;;;12.38;3.67;;;;;;;;;;5064359;28;20040;-53
2022/12/08 07:53:11;;;;;;;13.10;3.35;;;1.20;99.90;;;;;;5055938;28;20041;-51
2022/12/08 07:55:41;;;;;;;9.93;3.80;;;;;;;;;;5071854;28;20044;-53
2022/12/08 07:58:07;;;;;;;10.00;3.05;;;;;;;;;;5068691;28;20553;-52
2022/12/08 08:00:33;;;;;;;12.15;3.20;;;0.80;99.90;;;;;;5061475;28;20032;-54
2022/12/08 08:02:59;;;;;;;8.70;3.15;;;0.90;99.90;;;;;;5057525;28;20491;-56
2022/12/08 08:05:25;;;;;;;8.25;3.05;;;;;;;;;;5063579;28;20032;-53
2022/12/08 08:07:51;;;;;;;9.18;3.95;;;;;;;;;;5061078;28;20055;-53
2022/12/08 08:10:17;;;;;;;11.13;3.30;;;;;;;;;;5063546;28;20406;-54
2022/12/08 08:12:43;;;;;;;10.52;3.05;;;;;;;;;;5067947;28;20111;-56
2022/12/08 08:15:10;;;;;;;8.75;2.50;;;;;;;;;;5062453;28;20045;-53
2022/12/08 08:17:36;;;;;;;10.57;2.63;;;1.00;99.90;;;;;;5060887;28;20047;-55
2022/12/08 08:20:05;;;;;;;7.43;2.60;;;;;;;;;;5058482;28;20082;-54
2022/12/08 08:22:31;;;;;;;12.48;2.72;;;;;;;;;;5041212;28;20128;-50
2022/12/08 08:24:57;;;;;;;10.40;3.72;;;0.90;99.90;;;;;;5053018;28;20036;-52
2022/12/08 08:27:24;;;;;;;12.10;3.72;;;;;;;;;;5059171;28;20116;-55
2022/12/08 08:29:50;;;;;;;12.07;4.35;;;1.00;99.90;;;;;;5065509;28;20094;-55
2022/12/08 08:32:16;;;;;;;13.68;3.20;;;1.20;99.90;;;;;;5059399;28;20041;-52
2022/12/08 08:34:43;;;;;;;11.00;3.38;;;;;;;;;;5063333;28;20478;-55
2022/12/08 08:37:08;;;;;;;13.70;3.25;;;1.40;99.90;;;;;;5056961;28;20041;-53
2022/12/08 08:39:34;;;;;;;12.00;2.95;;;1.50;99.90;;;;;;5062208;28;20118;-52
2022/12/08 08:42:00;;;;;;;8.73;2.80;;;;;;;;;;5067923;28;20351;-55
2022/12/08 08:44:26;;;;;;;7.43;3.45;;;1.70;99.90;;;;;;5067510;28;20045;-52
2022/12/08 08:46:52;;;;;;;12.15;3.33;;;;;;;;;;5064412;28;20399;-54
2022/12/08 08:49:18;;;;;;;11.35;3.63;;;;;;;;;;5063507;28;20041;-53
2022/12/08 08:51:45;;;;;;;8.52;3.58;;;;;;;;;;5062749;28;20044;-57
2022/12/08 08:54:11;;;;;;;9.82;2.65;;;1.80;99.90;;;;;;5064707;28;20044;-53
2022/12/08 08:56:36;;;;;;;15.23;3.35;;;1.80;99.90;;;;;;5067269;28;20040;-55
2022/12/08 08:59:02;;;;;;;7.15;2.67;;;1.80;99.90;;;;;;5068767;28;20410;-55
2022/12/08 09:01:28;;;;;;;12.38;3.03;;;1.90;99.90;;;;;;5064101;28;20421;-52
2022/12/08 09:03:55;;;;;;;12.13;3.10;;;;;;;;;;5055856;28;20552;-54
2022/12/08 09:06:21;;;;;;;13.02;3.63;;;1.80;99.90;;;;;;5059533;28;20037;-54
2022/12/08 09:08:48;;;;;;;12.30;3.22;;;2.00;99.90;;;;;;5062408;28;20509;-55
2022/12/08 09:11:14;;;;;;;13.65;4.00;;;1.80;99.90;;;;;;5041480;28;20049;-55
2022/12/08 09:13:40;;;;;;;11.40;3.80;;;1.70;99.90;;;;;;5060896;28;20409;-53
2022/12/08 09:16:07;;;;;;;13.43;3.45;;;;;;;;;;5056462;28;20384;-55
2022/12/08 09:18:33;;;;;;;16.45;3.60;;;;;;;;;;5042091;28;20044;-54
2022/12/08 09:21:07;;;;;;;11.20;3.10;;;;;;;;;;5060518;28;20059;-57
2022/12/08 09:23:33;;;;;;;8.88;2.95;;;1.80;99.90;;;;;;5062478;28;20074;-55
2022/12/08 09:25:59;;;;;;;12.10;4.20;;;1.80;99.90;;;;;;5065063;28;20039;-52
2022/12/08 09:28:24;;;;;;;12.40;3.17;;;1.80;99.90;;;;;;5065400;28;21076;-52
2022/12/08 09:30:51;;;;;;;13.43;3.95;;;;;;;;;;5046406;28;20403;-52
2022/12/08 09:33:16;;;;;;;9.68;3.33;;;2.00;99.90;;;;;;5064198;28;20036;-53
2022/12/08 09:35:42;;;;;;;10.63;3.05;;;2.10;99.90;;;;;;5062546;28;20455;-54
2022/12/08 09:38:08;;;;;;;14.65;3.00;;;;;;;;;;5065721;28;20517;-54
2022/12/08 09:40:55;;;;;;;11.50;3.58;;;2.50;99.90;;;;;;5068049;28;20039;-52
2022/12/08 09:43:50;;;;;;;11.63;3.70;;;;;;;;;;5063306;28;20136;-55
2022/12/08 09:46:18;;;;;;;9.70;4.63;;;2.30;99.90;;;;;;5034681;28;20041;-54
2022/12/08 09:48:47;;;;;;;11.07;3.72;;;;;;;;;;5060500;28;20132;-55
2022/12/08 09:51:15;;;;;;;9.90;3.00;;;;;;;;;;5063326;28;20090;-56
2022/12/08 09:53:49;;;;;;;10.82;3.60;;;2.50;99.90;;;;;;5063100;28;20032;-54
2022/12/08 09:56:18;;;;;;;6.82;2.65;;;;;;;;;;5061327;28;20097;-52
2022/12/08 09:58:59;;;;;;;7.78;2.38;;;;;;;;;;5057590;28;20044;-53
2022/12/08 10:01:29;;;;;;;9.45;2.60;;;;;;;;;;5050574;28;20051;-52
2022/12/08 10:03:55;;;;;;;9.68;2.72;;;2.60;99.90;;;;;;5057317;28;20040;-54
2022/12/08 10:06:26;;;;;;;9.18;3.38;;;;;;;;;;5059014;28;20482;-52
2022/12/08 10:09:11;;;;;;;8.95;2.75;;;2.90;99.90;;;;;;5041269;28;20446;-52
2022/12/08 10:11:52;;;;;;;12.82;2.60;;;2.70;99.90;;;;;;5053199;28;20032;-54
2022/12/08 10:14:25;;;;;;;10.07;3.78;;;2.90;99.90;;;;;;5051050;28;20040;-53
2022/12/08 10:16:54;;;;;;;5.93;2.08;;;;;;;;;;5064657;28;20043;-52
2022/12/08 10:19:23;;;;;;;8.98;2.72;;;2.70;99.90;;;;;;5056803;28;20090;-51
2022/12/08 10:21:50;;;;;;;6.50;3.13;;;;;;;;;;5057667;28;20032;-52
2022/12/08 10:24:22;;;;;;;8.00;2.47;;;3.10;99.90;;;;;;5039770;28;20035;-52
2022/12/08 10:26:48;;;;;;;7.57;2.65;;;2.60;99.90;;;;;;5039868;28;20415;-52
2022/12/08 10:29:15;;;;;;;8.55;2.95;;;;;;;;;;5061516;28;20456;-54
2022/12/08 10:31:41;;;;;;;8.20;2.80;;;3.50;99.90;;;;;;5056042;28;20458;-53
2022/12/08 10:34:16;;;;;;;7.78;2.60;;;2.70;99.90;;;;;;5062016;28;20504;-52
2022/12/08 10:36:48;;;;;;;12.52;3.22;;;;;;;;;;5058687;28;20451;-51
2022/12/08 10:39:44;;;;;;;8.32;2.47;;;;;;;;;;5062674;28;20087;-52
2022/12/08 10:42:12;;;;;;;7.13;2.00;;;3.40;99.90;;;;;;5067931;28;20536;-52
2022/12/08 10:44:49;;;;;;;12.77;3.35;;;;;;;;;;5063095;28;20512;-54
2022/12/08 10:47:16;;;;;;;7.55;1.90;;;;;;;;;;5064122;28;20029;-52
2022/12/08 10:49:42;;;;;;;7.15;1.85;;;4.00;99.90;;;;;;5062647;28;20051;-52
2022/12/08 10:52:23;;;;;;;6.22;1.98;;;4.50;99.90;;;;;;5066959;28;20402;-52
2022/12/08 10:54:53;;;;;;;8.57;2.10;;;;;;;;;;5063438;28;20124;-53
2022/12/08 10:57:21;;;;;;;6.85;2.00;;;4.20;99.90;;;;;;5058697;28;20123;-56
2022/12/08 10:59:46;;;;;;;7.03;2.05;;;4.40;99.90;;;;;;5067446;28;20514;-52
2022/12/08 11:02:19;;;;;;;6.10;2.10;;;5.10;99.90;;;;;;5056342;28;20073;-55
2022/12/08 11:04:45;;;;;;;9.32;2.08;;;4.20;99.90;;;;;;5072872;28;20024;-55
2022/12/08 11:07:20;;;;;;;7.70;2.30;;;4.60;99.90;;;;;;5062771;28;20557;-54
2022/12/08 11:09:47;;;;;;;6.70;2.30;;;;;;;;;;5057838;28;20040;-53
2022/12/08 11:12:15;;;;;;;9.23;2.58;;;5.40;99.90;;;;;;5043851;28;20041;-55
2022/12/08 11:14:41;;;;;;;9.68;2.63;;;4.80;99.90;;;;;;5058180;28;20036;-53
2022/12/08 11:17:20;;;;;;;9.00;2.95;;;5.40;99.90;;;;;;5061025;28;20535;-52
2022/12/08 11:19:54;;;;;;;9.20;3.20;;;5.40;99.90;;;;;;5043149;28;20037;-52
2022/12/08 11:22:31;;;;;;;6.10;2.78;;;5.60;99.90;;;;;;5044983;28;20056;-55
2022/12/08 11:25:02;;;;;;;7.55;3.05;;;5.20;99.90;;;;;;5061297;28;20041;-55
2022/12/08 11:27:28;;;;;;;8.20;2.40;;;5.60;99.90;;;;;;5060633;28;20047;-52
2022/12/08 11:29:54;;;;;;;11.05;3.65;;;5.50;99.90;;;;;;5063591;28;20391;-54
2022/12/08 11:32:20;;;;;;;8.20;2.97;;;4.60;99.90;;;;;;5062929;28;20329;-54
2022/12/08 11:34:59;;;;;;;9.63;2.55;;;4.70;99.90;;;;;;5065234;28;20036;-54
2022/12/08 11:37:40;;;;;;;7.38;2.38;;;5.20;99.90;;;;;;5066217;28;20044;-55
2022/12/08 11:40:22;;;;;;;6.45;2.65;;;5.20;99.90;;;;;;5062759;28;20033;-53
2022/12/08 11:42:53;;;;;;;9.85;2.40;;;5.60;99.90;;;;;;5043755;28;20041;-55
2022/12/08 11:45:24;;;;;;;8.93;2.15;;;6.00;99.90;;;;;;5046721;28;20123;-55
2022/12/08 11:48:05;;;;;;;7.53;2.33;;;5.80;99.90;;;;;;5064310;28;20249;-53
2022/12/08 11:50:42;;;;;;;7.55;2.42;;;6.30;99.90;;;;;;5041834;28;20043;-55
2022/12/08 11:53:18;;;;;;;8.20;2.13;;;6.60;99.90;;;;;;5059073;28;20041;-54
2022/12/08 11:55:54;;;;;;;6.07;2.00;;;6.70;99.90;;;;;;5051064;28;20084;-54
2022/12/08 11:58:25;;;;;;;5.97;2.05;;;6.90;99.90;;;;;;5071157;28;20041;-53
2022/12/08 12:00:51;;;;;;;10.77;2.97;;;6.60;99.90;;;;;;5059604;28;20032;-53
2022/12/08 12:03:24;;;;;;;9.15;4.13;;;6.70;99.90;;;;;;5065359;28;20548;-51
2022/12/08 12:06:09;;;;;;;7.45;3.67;;;6.50;99.90;;;;;;5067618;28;20495;-52
2022/12/08 12:08:53;;;;;;;8.15;3.28;;;6.40;99.90;;;;;;5067162;28;20028;-55
2022/12/08 12:12:12;;;;;;;8.75;3.47;;;6.00;99.90;;;;;;5068350;28;20048;-52
2022/12/08 12:14:19;;;;;;;7.68;2.17;;;5.60;99.90;;;;;;5051057;28;20510;-51
2022/12/08 12:17:05;;;;;;;7.07;1.90;;;5.60;99.90;;;;;;5069630;28;20406;-52
2022/12/08 12:19:37;;;;;;;7.10;1.90;;;4.60;99.90;;;;;;5059227;28;20037;-51
2022/12/08 12:22:19;;;;;;;7.63;2.08;;;4.80;99.90;;;;;;5063370;28;20036;-48
2022/12/08 12:24:48;;;;;;;14.45;2.85;;;4.90;99.90;;;;;;5050571;28;20486;-51
2022/12/08 12:27:13;;;;;;;6.63;1.88;;;5.30;99.90;;;;;;5065767;28;20156;-51
2022/12/08 12:29:49;;;;;;;6.53;2.22;;;4.70;99.90;;;;;;5067201;28;20040;-52
2022/12/08 12:32:15;;;;;;;7.00;2.47;;;4.90;99.90;;;;;;5067887;28;20424;-51
2022/12/08 12:34:51;;;;;;;7.03;2.40;;;5.30;99.90;;;;;;5066134;28;20107;-53
2022/12/08 12:37:21;;;;;;;10.07;4.38;;;5.20;99.90;;;;;;5070820;28;20042;-51
2022/12/08 12:39:53;;;;;;;11.38;4.50;;;4.90;99.90;;;;;;5066609;28;20547;-52
2022/12/08 12:42:57;;;;;;;15.80;6.00;;;5.00;99.90;;;;;;5061035;28;20517;-51
2022/12/08 12:45:32;;;;;;;5.22;1.75;;;6.60;99.90;;;;;;5016893;28;20056;-52
2022/12/08 12:47:58;;;;;;;;;;;8.00;99.90;;;;;;5058171;28;20478;-52
2022/12/08 12:50:33;;;;;;;3.13;0.90;;;8.70;99.90;;;;;;5069151;28;19920;-50
2022/12/08 12:53:01;;;;;;;5.68;0.90;;;9.50;99.90;;;;;;5059191;28;20033;-53
2022/12/08 12:55:48;;;;;;;5.22;1.25;;;9.40;99.90;;;;;;5061361;28;20127;-52
2022/12/08 12:58:29;;;;;;;4.25;1.10;;;7.80;99.90;;;;;;5052864;28;20045;-52
2022/12/08 13:01:10;;;;;;;5.95;1.35;;;8.10;99.90;;;;;;5068862;28;20032;-50
2022/12/08 13:03:39;;;;;;;4.38;1.00;;;7.70;99.90;;;;;;5069705;28;20045;-50
2022/12/08 13:06:11;;;;;;;3.28;0.88;;;6.70;99.90;;;;;;5055590;28;20506;-52
2022/12/08 13:08:48;;;;;;;4.10;1.20;;;6.80;99.90;;;;;;5059509;28;20061;-51
2022/12/08 13:11:13;;;;;;;5.80;1.58;;;6.50;99.90;;;;;;5055423;28;20029;-52
2022/12/08 13:14:22;;;;;;;4.53;1.17;;;6.60;99.90;;;;;;5065170;28;20512;-52
2022/12/08 13:16:53;;;;;;;5.05;1.20;;;5.90;99.90;;;;;;5053123;28;20059;-51
2022/12/08 13:19:21;;;;;;;5.75;1.10;;;6.00;99.90;;;;;;5064863;28;20040;-54
2022/12/08 13:21:47;;;;;;;8.50;1.70;;;6.00;99.90;;;;;;5061696;28;20039;-53
2022/12/08 13:24:18;;;;;;;4.53;1.38;;;5.90;99.90;;;;;;5063320;28;20029;-53
2022/12/08 13:27:10;;;;;;;7.25;1.40;;;8.20;99.90;;;;;;5057588;28;20413;-53
2022/12/08 13:29:37;;;;;;;7.28;1.10;;;9.10;99.90;;;;;;5062471;28;20528;-54
2022/12/08 13:32:04;;;;;;;4.20;1.30;;;;;;;;;;5052196;28;20036;-54
2022/12/08 13:34:40;;;;;;;3.20;1.10;;;10.00;99.90;;;;;;5060464;28;20044;-55
2022/12/08 13:37:08;;;;;;;9.65;1.80;;;10.10;99.90;;;;;;5032838;28;20036;-52
2022/12/08 13:39:59;;;;;;;4.15;1.67;;;10.50;99.90;;;;;;5059522;28;20390;-54
2022/12/08 13:42:33;;;;;;;7.32;1.75;;;12.30;1.00;;;;;;5061074;28;20124;-55
2022/12/08 13:45:11;;;;;;;5.57;1.60;;;12.00;1.00;;;;;;5058782;28;20029;-52
2022/12/08 13:48:04;;;;;;;2.70;0.77;;;12.20;1.00;;;;;;5059955;28;20074;-53